PROFILE

 METAR AND TAF INFORMATION
ADDS - METARS form results

(1815 UTC 10 April 2021)
http://aviationweather.gov/metar/data/
 
SKBO 101800Z 01005KT 9999 BKN020 19/09 Q1026 NOSIG RMK A3030
TAF SKBO 101630Z 101818 14010KT 9999 BKN020 TEMPO 1021/1024 DZRA SCT017TCU BKN080 BECMG 1101/1103 VRB02KT TX19/1018Z TN10/1110Z 

 AIRPORT MAP

 RUNWAY INFORMATION
Runway 13L Runway length 12467 ft Runway width 148 ft
Runway elevation 8354 ft Runway displaced threshold 0 ft Runway heading 127
Runway 31R Runway length 12467 ft Runway width 148 ft
Runway elevation 8354 ft Runway displaced threshold 0 ft Runway heading 307
Runway 13R Runway length 12467 ft Runway width 148 ft
Runway elevation 8350 ft Runway displaced threshold 0 ft Runway heading 127
Runway 31L Runway length 12467 ft Runway width 148 ft
Runway elevation 8355 ft Runway displaced threshold 0 ft Runway heading 307

 AIRPORT FREQUENCIES
Type APP Name BOGOTA APP Frequency 119.5 MHZ
Type ATIS Name ATIS Frequency 113.9 MHZ
Type DEP Name BOGOTA DEP Frequency 119.5 MHZ
Type INFO Name BOGOTA FIS Frequency 126.9 MHZ
Type OPS Name MILGP RDO Frequency 1395 MHZ
Type RDO Name BOGOTA RDO Frequency 348.8 MHZ

 AIRPORT NEAR NAVIGATION AIDS
Type VOR-DME Name Bogota Frequency 113900 KHZ
Type NDB Name Bogota Frequency 340 KHZ
Type NDB Name Delta Romeo Frequency 264 KHZ
Type NDB Name Romeo Frequency 274 KHZ
Type NDB Name Techo Frequency 284 KHZ
Type VOR-DME Name Zipaquira Frequency 114700 KHZ